sensor_id;sensor_type;location;lat;lon;timestamp;P1;durP1;ratioP1;P2;durP2;ratioP2
62401;SDS011;48440;51.224;22.506;2023-02-01T00:01:18;17.48;;;9.68;;
62401;SDS011;48440;51.224;22.506;2023-02-01T00:03:43;16.08;;;9.65;;
62401;SDS011;48440;51.224;22.506;2023-02-01T00:06:09;16.05;;;9.18;;
62401;SDS011;48440;51.224;22.506;2023-02-01T00:08:35;17.77;;;9.68;;
62401;SDS011;48440;51.224;22.506;2023-02-01T00:11:01;15.98;;;9.30;;
62401;SDS011;48440;51.224;22.506;2023-02-01T00:13:29;15.55;;;8.80;;
62401;SDS011;48440;51.224;22.506;2023-02-01T00:16:09;13.23;;;8.13;;
62401;SDS011;48440;51.224;22.506;2023-02-01T00:18:38;11.82;;;7.93;;
62401;SDS011;48440;51.224;22.506;2023-02-01T00:21:04;12.85;;;8.02;;
62401;SDS011;48440;51.224;22.506;2023-02-01T00:23:33;12.15;;;6.95;;
62401;SDS011;48440;51.224;22.506;2023-02-01T00:26:00;14.02;;;8.18;;
62401;SDS011;48440;51.224;22.506;2023-02-01T00:28:27;13.05;;;8.18;;
62401;SDS011;48440;51.224;22.506;2023-02-01T00:30:56;13.75;;;7.82;;
62401;SDS011;48440;51.224;22.506;2023-02-01T00:33:25;13.50;;;7.80;;
62401;SDS011;48440;51.224;22.506;2023-02-01T00:35:50;11.07;;;6.75;;
62401;SDS011;48440;51.224;22.506;2023-02-01T00:38:16;13.77;;;7.15;;
62401;SDS011;48440;51.224;22.506;2023-02-01T00:40:41;11.40;;;6.90;;
62401;SDS011;48440;51.224;22.506;2023-02-01T00:43:07;12.40;;;7.20;;
62401;SDS011;48440;51.224;22.506;2023-02-01T00:45:32;9.43;;;6.47;;
62401;SDS011;48440;51.224;22.506;2023-02-01T00:47:58;9.70;;;6.47;;
62401;SDS011;48440;51.224;22.506;2023-02-01T00:50:23;9.48;;;6.38;;
62401;SDS011;48440;51.224;22.506;2023-02-01T00:52:48;12.80;;;6.68;;
62401;SDS011;48440;51.224;22.506;2023-02-01T00:55:14;11.13;;;7.22;;
62401;SDS011;48440;51.224;22.506;2023-02-01T00:57:39;8.52;;;6.50;;
62401;SDS011;48440;51.224;22.506;2023-02-01T01:00:05;12.25;;;7.15;;
62401;SDS011;48440;51.224;22.506;2023-02-01T01:02:31;10.68;;;6.65;;
62401;SDS011;48440;51.224;22.506;2023-02-01T01:04:56;12.30;;;7.57;;
62401;SDS011;48440;51.224;22.506;2023-02-01T01:07:22;9.65;;;6.43;;
62401;SDS011;48440;51.224;22.506;2023-02-01T01:09:47;9.35;;;7.05;;
62401;SDS011;48440;51.224;22.506;2023-02-01T01:12:13;9.70;;;6.38;;
62401;SDS011;48440;51.224;22.506;2023-02-01T01:14:38;12.18;;;7.00;;
62401;SDS011;48440;51.224;22.506;2023-02-01T01:17:04;9.50;;;6.50;;
62401;SDS011;48440;51.224;22.506;2023-02-01T01:19:29;11.10;;;6.70;;
62401;SDS011;48440;51.224;22.506;2023-02-01T01:21:54;9.77;;;7.53;;
62401;SDS011;48440;51.224;22.506;2023-02-01T01:24:20;12.07;;;7.50;;
62401;SDS011;48440;51.224;22.506;2023-02-01T01:26:45;13.18;;;7.93;;
62401;SDS011;48440;51.224;22.506;2023-02-01T01:29:11;10.32;;;7.40;;
62401;SDS011;48440;51.224;22.506;2023-02-01T01:31:36;12.05;;;7.13;;
62401;SDS011;48440;51.224;22.506;2023-02-01T01:34:01;11.48;;;7.45;;
62401;SDS011;48440;51.224;22.506;2023-02-01T01:36:27;12.23;;;7.13;;
62401;SDS011;48440;51.224;22.506;2023-02-01T01:38:53;12.18;;;6.53;;
62401;SDS011;48440;51.224;22.506;2023-02-01T01:41:22;10.73;;;6.65;;
62401;SDS011;48440;51.224;22.506;2023-02-01T01:43:54;9.18;;;5.95;;
62401;SDS011;48440;51.224;22.506;2023-02-01T01:46:26;11.30;;;6.05;;
62401;SDS011;48440;51.224;22.506;2023-02-01T01:51:22;6.85;;;5.22;;
62401;SDS011;48440;51.224;22.506;2023-02-01T01:53:53;8.77;;;5.18;;
62401;SDS011;48440;51.224;22.506;2023-02-01T01:56:33;6.88;;;4.75;;
62401;SDS011;48440;51.224;22.506;2023-02-01T01:59:00;8.55;;;4.93;;
62401;SDS011;48440;51.224;22.506;2023-02-01T02:01:26;8.00;;;5.60;;
62401;SDS011;48440;51.224;22.506;2023-02-01T02:03:52;7.15;;;4.30;;
62401;SDS011;48440;51.224;22.506;2023-02-01T02:11:38;5.10;;;3.70;;
62401;SDS011;48440;51.224;22.506;2023-02-01T02:14:03;8.35;;;3.70;;
62401;SDS011;48440;51.224;22.506;2023-02-01T02:19:28;5.93;;;3.95;;
62401;SDS011;48440;51.224;22.506;2023-02-01T02:37:54;6.95;;;3.97;;
62401;SDS011;48440;51.224;22.506;2023-02-01T02:40:41;6.00;;;3.80;;
62401;SDS011;48440;51.224;22.506;2023-02-01T02:43:20;6.47;;;3.60;;
62401;SDS011;48440;51.224;22.506;2023-02-01T02:46:20;8.05;;;3.47;;
62401;SDS011;48440;51.224;22.506;2023-02-01T02:49:15;5.03;;;3.10;;
62401;SDS011;48440;51.224;22.506;2023-02-01T02:51:58;5.78;;;2.80;;
62401;SDS011;48440;51.224;22.506;2023-02-01T02:54:53;4.60;;;3.08;;
62401;SDS011;48440;51.224;22.506;2023-02-01T02:57:31;6.18;;;3.15;;
62401;SDS011;48440;51.224;22.506;2023-02-01T03:00:27;3.95;;;2.63;;
62401;SDS011;48440;51.224;22.506;2023-02-01T03:03:12;4.35;;;2.90;;
62401;SDS011;48440;51.224;22.506;2023-02-01T03:08:23;5.38;;;2.50;;
62401;SDS011;48440;51.224;22.506;2023-02-01T03:21:44;3.92;;;2.20;;
62401;SDS011;48440;51.224;22.506;2023-02-01T03:24:16;4.10;;;1.80;;
62401;SDS011;48440;51.224;22.506;2023-02-01T03:26:48;3.85;;;1.80;;
62401;SDS011;48440;51.224;22.506;2023-02-01T03:29:24;2.78;;;1.65;;
62401;SDS011;48440;51.224;22.506;2023-02-01T03:31:54;5.85;;;2.30;;
62401;SDS011;48440;51.224;22.506;2023-02-01T03:34:20;2.63;;;1.80;;
62401;SDS011;48440;51.224;22.506;2023-02-01T03:36:50;3.53;;;1.88;;
62401;SDS011;48440;51.224;22.506;2023-02-01T03:39:28;7.82;;;2.53;;
62401;SDS011;48440;51.224;22.506;2023-02-01T03:42:01;3.55;;;1.55;;
62401;SDS011;48440;51.224;22.506;2023-02-01T03:44:46;4.32;;;1.67;;
62401;SDS011;48440;51.224;22.506;2023-02-01T03:47:16;4.47;;;1.70;;
62401;SDS011;48440;51.224;22.506;2023-02-01T03:49:48;3.45;;;1.80;;
62401;SDS011;48440;51.224;22.506;2023-02-01T03:52:22;2.08;;;1.38;;
62401;SDS011;48440;51.224;22.506;2023-02-01T03:55:00;3.60;;;2.13;;
62401;SDS011;48440;51.224;22.506;2023-02-01T03:57:28;2.97;;;1.67;;
62401;SDS011;48440;51.224;22.506;2023-02-01T04:00:03;4.43;;;1.67;;
62401;SDS011;48440;51.224;22.506;2023-02-01T04:02:35;3.40;;;1.50;;
62401;SDS011;48440;51.224;22.506;2023-02-01T04:05:00;4.22;;;1.65;;
62401;SDS011;48440;51.224;22.506;2023-02-01T04:07:25;5.07;;;1.60;;
62401;SDS011;48440;51.224;22.506;2023-02-01T04:09:51;3.22;;;1.42;;
62401;SDS011;48440;51.224;22.506;2023-02-01T04:12:16;5.38;;;1.50;;
62401;SDS011;48440;51.224;22.506;2023-02-01T04:14:42;4.65;;;1.52;;
62401;SDS011;48440;51.224;22.506;2023-02-01T04:17:07;3.40;;;1.60;;
62401;SDS011;48440;51.224;22.506;2023-02-01T04:19:33;4.55;;;1.65;;
62401;SDS011;48440;51.224;22.506;2023-02-01T04:21:58;5.35;;;1.73;;
62401;SDS011;48440;51.224;22.506;2023-02-01T04:24:24;4.38;;;1.90;;
62401;SDS011;48440;51.224;22.506;2023-02-01T04:26:49;2.75;;;1.50;;
62401;SDS011;48440;51.224;22.506;2023-02-01T04:29:14;4.75;;;1.80;;
62401;SDS011;48440;51.224;22.506;2023-02-01T04:31:40;4.70;;;1.80;;
62401;SDS011;48440;51.224;22.506;2023-02-01T04:34:06;4.40;;;2.15;;
62401;SDS011;48440;51.224;22.506;2023-02-01T04:36:31;3.60;;;1.52;;
62401;SDS011;48440;51.224;22.506;2023-02-01T04:38:56;5.78;;;1.85;;
62401;SDS011;48440;51.224;22.506;2023-02-01T04:41:22;3.08;;;1.77;;
62401;SDS011;48440;51.224;22.506;2023-02-01T04:43:48;5.72;;;1.52;;
62401;SDS011;48440;51.224;22.506;2023-02-01T04:46:14;4.10;;;1.65;;
62401;SDS011;48440;51.224;22.506;2023-02-01T04:48:40;4.13;;;1.52;;
62401;SDS011;48440;51.224;22.506;2023-02-01T04:51:06;4.20;;;1.45;;
62401;SDS011;48440;51.224;22.506;2023-02-01T04:53:32;6.88;;;1.80;;
62401;SDS011;48440;51.224;22.506;2023-02-01T04:55:58;6.88;;;1.70;;
62401;SDS011;48440;51.224;22.506;2023-02-01T04:58:23;4.22;;;1.98;;
62401;SDS011;48440;51.224;22.506;2023-02-01T05:00:49;7.32;;;1.83;;
62401;SDS011;48440;51.224;22.506;2023-02-01T05:03:15;9.10;;;2.00;;
62401;SDS011;48440;51.224;22.506;2023-02-01T05:05:40;5.55;;;1.92;;
62401;SDS011;48440;51.224;22.506;2023-02-01T05:08:06;5.82;;;2.00;;
62401;SDS011;48440;51.224;22.506;2023-02-01T05:10:31;8.73;;;2.45;;
62401;SDS011;48440;51.224;22.506;2023-02-01T05:12:56;6.75;;;2.03;;
62401;SDS011;48440;51.224;22.506;2023-02-01T05:15:40;5.57;;;1.98;;
62401;SDS011;48440;51.224;22.506;2023-02-01T05:18:06;8.23;;;2.10;;
62401;SDS011;48440;51.224;22.506;2023-02-01T05:20:31;5.57;;;2.15;;
62401;SDS011;48440;51.224;22.506;2023-02-01T05:22:57;6.47;;;2.35;;
62401;SDS011;48440;51.224;22.506;2023-02-01T05:25:22;7.45;;;2.30;;
62401;SDS011;48440;51.224;22.506;2023-02-01T05:27:48;7.22;;;2.25;;
62401;SDS011;48440;51.224;22.506;2023-02-01T05:30:14;8.15;;;2.40;;
62401;SDS011;48440;51.224;22.506;2023-02-01T05:32:39;8.05;;;2.40;;
62401;SDS011;48440;51.224;22.506;2023-02-01T05:35:05;5.78;;;1.92;;
62401;SDS011;48440;51.224;22.506;2023-02-01T05:37:31;9.20;;;2.08;;
62401;SDS011;48440;51.224;22.506;2023-02-01T05:39:56;7.78;;;2.13;;
62401;SDS011;48440;51.224;22.506;2023-02-01T05:42:22;9.27;;;2.30;;
62401;SDS011;48440;51.224;22.506;2023-02-01T05:44:47;4.43;;;2.10;;
62401;SDS011;48440;51.224;22.506;2023-02-01T05:47:12;6.32;;;1.92;;
62401;SDS011;48440;51.224;22.506;2023-02-01T05:49:38;6.43;;;2.30;;
62401;SDS011;48440;51.224;22.506;2023-02-01T05:52:04;8.60;;;2.40;;
62401;SDS011;48440;51.224;22.506;2023-02-01T05:54:29;9.65;;;2.63;;
62401;SDS011;48440;51.224;22.506;2023-02-01T05:56:55;11.65;;;2.15;;
62401;SDS011;48440;51.224;22.506;2023-02-01T05:59:20;4.38;;;2.05;;
62401;SDS011;48440;51.224;22.506;2023-02-01T06:01:46;8.00;;;2.38;;
62401;SDS011;48440;51.224;22.506;2023-02-01T06:04:11;8.27;;;2.95;;
62401;SDS011;48440;51.224;22.506;2023-02-01T06:06:37;7.15;;;2.65;;
62401;SDS011;48440;51.224;22.506;2023-02-01T06:09:02;8.25;;;2.50;;
62401;SDS011;48440;51.224;22.506;2023-02-01T06:11:28;7.38;;;2.28;;
62401;SDS011;48440;51.224;22.506;2023-02-01T06:13:54;5.78;;;2.10;;
62401;SDS011;48440;51.224;22.506;2023-02-01T06:16:20;12.57;;;2.30;;
62401;SDS011;48440;51.224;22.506;2023-02-01T06:18:47;7.03;;;2.15;;
62401;SDS011;48440;51.224;22.506;2023-02-01T06:21:12;5.68;;;1.92;;
62401;SDS011;48440;51.224;22.506;2023-02-01T06:23:48;10.00;;;2.08;;
62401;SDS011;48440;51.224;22.506;2023-02-01T06:26:22;9.55;;;2.50;;
62401;SDS011;48440;51.224;22.506;2023-02-01T06:28:47;11.93;;;2.63;;
62401;SDS011;48440;51.224;22.506;2023-02-01T06:31:13;10.88;;;2.78;;
62401;SDS011;48440;51.224;22.506;2023-02-01T06:33:39;7.13;;;2.20;;
62401;SDS011;48440;51.224;22.506;2023-02-01T06:36:06;9.48;;;2.63;;
62401;SDS011;48440;51.224;22.506;2023-02-01T06:38:32;7.53;;;2.83;;
62401;SDS011;48440;51.224;22.506;2023-02-01T06:41:01;8.00;;;2.65;;
62401;SDS011;48440;51.224;22.506;2023-02-01T06:43:27;6.43;;;2.08;;
62401;SDS011;48440;51.224;22.506;2023-02-01T06:45:53;8.60;;;2.45;;
62401;SDS011;48440;51.224;22.506;2023-02-01T06:48:23;8.85;;;2.45;;
62401;SDS011;48440;51.224;22.506;2023-02-01T06:50:49;9.88;;;2.30;;
62401;SDS011;48440;51.224;22.506;2023-02-01T06:53:14;5.80;;;2.28;;
62401;SDS011;48440;51.224;22.506;2023-02-01T06:55:40;7.50;;;2.42;;
62401;SDS011;48440;51.224;22.506;2023-02-01T06:58:05;10.38;;;2.38;;
62401;SDS011;48440;51.224;22.506;2023-02-01T07:00:31;6.45;;;2.10;;
62401;SDS011;48440;51.224;22.506;2023-02-01T07:02:57;9.40;;;2.75;;
62401;SDS011;48440;51.224;22.506;2023-02-01T07:05:23;7.97;;;2.70;;
62401;SDS011;48440;51.224;22.506;2023-02-01T07:07:48;5.75;;;2.45;;
62401;SDS011;48440;51.224;22.506;2023-02-01T07:10:14;9.80;;;3.00;;
62401;SDS011;48440;51.224;22.506;2023-02-01T07:12:39;11.27;;;2.85;;
62401;SDS011;48440;51.224;22.506;2023-02-01T07:15:05;6.38;;;2.20;;
62401;SDS011;48440;51.224;22.506;2023-02-01T07:17:31;8.55;;;2.53;;
62401;SDS011;48440;51.224;22.506;2023-02-01T07:19:57;9.32;;;2.90;;
62401;SDS011;48440;51.224;22.506;2023-02-01T07:22:24;9.73;;;2.55;;
62401;SDS011;48440;51.224;22.506;2023-02-01T07:24:50;6.35;;;2.20;;
62401;SDS011;48440;51.224;22.506;2023-02-01T07:27:16;13.77;;;2.80;;
62401;SDS011;48440;51.224;22.506;2023-02-01T07:29:41;7.40;;;2.03;;
62401;SDS011;48440;51.224;22.506;2023-02-01T07:32:06;9.48;;;2.70;;
62401;SDS011;48440;51.224;22.506;2023-02-01T07:34:32;9.52;;;2.47;;
62401;SDS011;48440;51.224;22.506;2023-02-01T07:36:59;12.18;;;2.55;;
62401;SDS011;48440;51.224;22.506;2023-02-01T07:39:24;8.15;;;2.28;;
62401;SDS011;48440;51.224;22.506;2023-02-01T07:41:53;10.70;;;2.58;;
62401;SDS011;48440;51.224;22.506;2023-02-01T07:44:18;6.28;;;2.38;;
62401;SDS011;48440;51.224;22.506;2023-02-01T07:46:47;10.95;;;2.97;;
62401;SDS011;48440;51.224;22.506;2023-02-01T07:49:13;7.13;;;2.03;;
62401;SDS011;48440;51.224;22.506;2023-02-01T07:51:39;5.57;;;2.00;;
62401;SDS011;48440;51.224;22.506;2023-02-01T07:54:04;8.38;;;2.10;;
62401;SDS011;48440;51.224;22.506;2023-02-01T07:56:29;6.50;;;1.98;;
62401;SDS011;48440;51.224;22.506;2023-02-01T07:58:55;7.50;;;2.28;;
62401;SDS011;48440;51.224;22.506;2023-02-01T08:01:24;10.32;;;2.65;;
62401;SDS011;48440;51.224;22.506;2023-02-01T08:03:52;7.07;;;2.17;;
62401;SDS011;48440;51.224;22.506;2023-02-01T08:06:26;9.45;;;3.25;;
62401;SDS011;48440;51.224;22.506;2023-02-01T08:08:53;6.88;;;2.25;;
62401;SDS011;48440;51.224;22.506;2023-02-01T08:11:19;10.90;;;3.15;;
62401;SDS011;48440;51.224;22.506;2023-02-01T08:13:45;9.65;;;2.70;;
62401;SDS011;48440;51.224;22.506;2023-02-01T08:16:11;16.00;;;3.08;;
62401;SDS011;48440;51.224;22.506;2023-02-01T08:18:38;10.45;;;2.80;;
62401;SDS011;48440;51.224;22.506;2023-02-01T08:23:31;7.00;;;2.35;;
62401;SDS011;48440;51.224;22.506;2023-02-01T08:26:05;11.65;;;2.95;;
62401;SDS011;48440;51.224;22.506;2023-02-01T08:28:40;10.43;;;3.10;;
62401;SDS011;48440;51.224;22.506;2023-02-01T08:31:12;10.23;;;2.50;;
62401;SDS011;48440;51.224;22.506;2023-02-01T08:33:44;8.50;;;2.88;;
62401;SDS011;48440;51.224;22.506;2023-02-01T08:36:13;8.05;;;2.25;;
62401;SDS011;48440;51.224;22.506;2023-02-01T08:38:39;11.38;;;2.70;;
62401;SDS011;48440;51.224;22.506;2023-02-01T08:41:09;7.47;;;2.45;;
62401;SDS011;48440;51.224;22.506;2023-02-01T08:43:40;11.55;;;2.72;;
62401;SDS011;48440;51.224;22.506;2023-02-01T08:46:06;11.68;;;2.45;;
62401;SDS011;48440;51.224;22.506;2023-02-01T08:48:33;9.68;;;2.63;;
62401;SDS011;48440;51.224;22.506;2023-02-01T08:51:07;8.13;;;2.58;;
62401;SDS011;48440;51.224;22.506;2023-02-01T08:53:36;8.05;;;2.95;;
62401;SDS011;48440;51.224;22.506;2023-02-01T08:56:02;10.23;;;3.10;;
62401;SDS011;48440;51.224;22.506;2023-02-01T08:58:28;10.52;;;2.50;;
62401;SDS011;48440;51.224;22.506;2023-02-01T09:00:54;12.88;;;2.90;;
62401;SDS011;48440;51.224;22.506;2023-02-01T09:03:20;11.52;;;2.97;;
62401;SDS011;48440;51.224;22.506;2023-02-01T09:05:45;11.70;;;2.70;;
62401;SDS011;48440;51.224;22.506;2023-02-01T09:08:11;9.32;;;2.63;;
62401;SDS011;48440;51.224;22.506;2023-02-01T09:10:40;9.77;;;2.22;;
62401;SDS011;48440;51.224;22.506;2023-02-01T09:13:08;10.60;;;2.38;;
62401;SDS011;48440;51.224;22.506;2023-02-01T09:15:34;7.90;;;2.47;;
62401;SDS011;48440;51.224;22.506;2023-02-01T09:18:00;13.65;;;2.75;;
62401;SDS011;48440;51.224;22.506;2023-02-01T09:20:27;10.40;;;2.42;;
62401;SDS011;48440;51.224;22.506;2023-02-01T09:22:54;12.27;;;2.85;;
62401;SDS011;48440;51.224;22.506;2023-02-01T09:25:20;10.10;;;2.75;;
62401;SDS011;48440;51.224;22.506;2023-02-01T09:27:46;13.68;;;2.42;;
62401;SDS011;48440;51.224;22.506;2023-02-01T09:30:11;8.98;;;2.38;;
62401;SDS011;48440;51.224;22.506;2023-02-01T09:32:40;10.63;;;2.63;;
62401;SDS011;48440;51.224;22.506;2023-02-01T09:35:05;7.50;;;2.08;;
62401;SDS011;48440;51.224;22.506;2023-02-01T09:37:31;11.32;;;2.85;;
62401;SDS011;48440;51.224;22.506;2023-02-01T09:39:57;9.70;;;2.15;;
62401;SDS011;48440;51.224;22.506;2023-02-01T09:47:23;8.88;;;2.50;;
62401;SDS011;48440;51.224;22.506;2023-02-01T09:55:44;11.60;;;2.90;;
62401;SDS011;48440;51.224;22.506;2023-02-01T10:00:45;14.00;;;2.90;;
62401;SDS011;48440;51.224;22.506;2023-02-01T10:03:17;11.77;;;2.47;;
62401;SDS011;48440;51.224;22.506;2023-02-01T10:10:51;12.10;;;3.03;;
62401;SDS011;48440;51.224;22.506;2023-02-01T10:24:36;9.63;;;3.17;;
62401;SDS011;48440;51.224;22.506;2023-02-01T10:29:39;10.70;;;2.78;;
62401;SDS011;48440;51.224;22.506;2023-02-01T10:32:19;10.48;;;2.85;;
62401;SDS011;48440;51.224;22.506;2023-02-01T10:35:31;13.50;;;2.97;;
62401;SDS011;48440;51.224;22.506;2023-02-01T10:37:40;8.77;;;2.45;;
62401;SDS011;48440;51.224;22.506;2023-02-01T10:40:18;13.55;;;3.80;;
62401;SDS011;48440;51.224;22.506;2023-02-01T10:42:48;9.55;;;3.22;;
62401;SDS011;48440;51.224;22.506;2023-02-01T10:45:17;10.70;;;2.90;;
62401;SDS011;48440;51.224;22.506;2023-02-01T10:47:48;12.43;;;3.38;;
62401;SDS011;48440;51.224;22.506;2023-02-01T10:52:54;14.20;;;3.47;;
62401;SDS011;48440;51.224;22.506;2023-02-01T10:55:26;14.70;;;2.88;;
62401;SDS011;48440;51.224;22.506;2023-02-01T10:58:02;14.65;;;3.70;;
62401;SDS011;48440;51.224;22.506;2023-02-01T11:00:46;11.95;;;3.28;;
62401;SDS011;48440;51.224;22.506;2023-02-01T11:06:27;8.38;;;3.55;;
62401;SDS011;48440;51.224;22.506;2023-02-01T11:11:34;11.70;;;2.60;;
62401;SDS011;48440;51.224;22.506;2023-02-01T11:16:53;10.23;;;2.72;;
62401;SDS011;48440;51.224;22.506;2023-02-01T11:19:21;12.90;;;2.58;;
62401;SDS011;48440;51.224;22.506;2023-02-01T11:21:50;10.27;;;2.72;;
62401;SDS011;48440;51.224;22.506;2023-02-01T11:24:22;12.80;;;2.85;;
62401;SDS011;48440;51.224;22.506;2023-02-01T11:26:53;8.07;;;3.00;;
62401;SDS011;48440;51.224;22.506;2023-02-01T11:29:21;12.93;;;2.95;;
62401;SDS011;48440;51.224;22.506;2023-02-01T11:31:54;11.85;;;2.55;;
62401;SDS011;48440;51.224;22.506;2023-02-01T11:34:24;11.02;;;2.70;;
62401;SDS011;48440;51.224;22.506;2023-02-01T11:36:53;7.90;;;2.65;;
62401;SDS011;48440;51.224;22.506;2023-02-01T11:39:28;10.73;;;3.15;;
62401;SDS011;48440;51.224;22.506;2023-02-01T11:44:43;8.25;;;2.58;;
62401;SDS011;48440;51.224;22.506;2023-02-01T11:50:05;11.73;;;2.92;;
62401;SDS011;48440;51.224;22.506;2023-02-01T11:55:38;11.02;;;2.85;;
62401;SDS011;48440;51.224;22.506;2023-02-01T12:06:31;10.23;;;3.08;;
62401;SDS011;48440;51.224;22.506;2023-02-01T12:09:27;8.35;;;3.22;;
62401;SDS011;48440;51.224;22.506;2023-02-01T12:20:59;6.35;;;2.80;;
62401;SDS011;48440;51.224;22.506;2023-02-01T12:42:46;12.00;;;3.65;;
62401;SDS011;48440;51.224;22.506;2023-02-01T12:45:26;15.88;;;3.95;;
62401;SDS011;48440;51.224;22.506;2023-02-01T12:50:42;13.25;;;3.92;;
62401;SDS011;48440;51.224;22.506;2023-02-01T12:53:32;12.05;;;3.60;;
62401;SDS011;48440;51.224;22.506;2023-02-01T12:56:07;12.20;;;4.05;;
62401;SDS011;48440;51.224;22.506;2023-02-01T13:01:15;11.18;;;3.58;;
62401;SDS011;48440;51.224;22.506;2023-02-01T13:06:19;10.23;;;3.55;;
62401;SDS011;48440;51.224;22.506;2023-02-01T13:09:09;15.40;;;4.18;;
62401;SDS011;48440;51.224;22.506;2023-02-01T13:11:38;12.88;;;3.70;;
62401;SDS011;48440;51.224;22.506;2023-02-01T13:16:43;10.73;;;3.70;;
62401;SDS011;48440;51.224;22.506;2023-02-01T13:22:12;6.82;;;3.47;;
62401;SDS011;48440;51.224;22.506;2023-02-01T13:24:44;8.68;;;3.15;;
62401;SDS011;48440;51.224;22.506;2023-02-01T13:27:16;8.27;;;3.03;;
62401;SDS011;48440;51.224;22.506;2023-02-01T13:29:54;7.95;;;3.10;;
62401;SDS011;48440;51.224;22.506;2023-02-01T13:43:54;13.00;;;3.85;;
62401;SDS011;48440;51.224;22.506;2023-02-01T13:46:24;11.05;;;4.65;;
62401;SDS011;48440;51.224;22.506;2023-02-01T13:48:51;9.95;;;4.05;;
62401;SDS011;48440;51.224;22.506;2023-02-01T13:51:31;12.98;;;4.30;;
62401;SDS011;48440;51.224;22.506;2023-02-01T13:54:00;13.48;;;4.20;;
62401;SDS011;48440;51.224;22.506;2023-02-01T13:56:26;12.07;;;4.40;;
62401;SDS011;48440;51.224;22.506;2023-02-01T13:58:52;9.70;;;3.97;;
62401;SDS011;48440;51.224;22.506;2023-02-01T14:03:47;14.10;;;4.68;;
62401;SDS011;48440;51.224;22.506;2023-02-01T14:16:40;14.48;;;5.03;;
62401;SDS011;48440;51.224;22.506;2023-02-01T14:19:48;13.88;;;5.32;;
62401;SDS011;48440;51.224;22.506;2023-02-01T14:24:52;18.33;;;7.10;;
62401;SDS011;48440;51.224;22.506;2023-02-01T14:27:21;27.13;;;7.32;;
62401;SDS011;48440;51.224;22.506;2023-02-01T14:29:53;17.65;;;7.55;;
62401;SDS011;48440;51.224;22.506;2023-02-01T14:32:25;17.85;;;7.25;;
62401;SDS011;48440;51.224;22.506;2023-02-01T14:34:58;15.70;;;6.22;;
62401;SDS011;48440;51.224;22.506;2023-02-01T14:37:35;19.00;;;7.10;;
62401;SDS011;48440;51.224;22.506;2023-02-01T14:47:44;17.85;;;6.38;;
62401;SDS011;48440;51.224;22.506;2023-02-01T14:58:54;27.88;;;10.32;;
62401;SDS011;48440;51.224;22.506;2023-02-01T15:01:33;19.83;;;7.82;;
62401;SDS011;48440;51.224;22.506;2023-02-01T15:06:47;21.50;;;7.15;;
62401;SDS011;48440;51.224;22.506;2023-02-01T15:14:30;16.30;;;5.90;;
62401;SDS011;48440;51.224;22.506;2023-02-01T15:16:57;15.18;;;5.63;;
62401;SDS011;48440;51.224;22.506;2023-02-01T15:19:23;16.05;;;6.00;;
62401;SDS011;48440;51.224;22.506;2023-02-01T15:21:52;20.55;;;6.50;;
62401;SDS011;48440;51.224;22.506;2023-02-01T15:24:20;18.45;;;5.45;;
62401;SDS011;48440;51.224;22.506;2023-02-01T15:26:48;13.90;;;5.35;;
62401;SDS011;48440;51.224;22.506;2023-02-01T15:29:14;18.08;;;6.07;;
62401;SDS011;48440;51.224;22.506;2023-02-01T15:31:42;15.63;;;5.00;;
62401;SDS011;48440;51.224;22.506;2023-02-01T15:34:09;17.88;;;6.40;;
62401;SDS011;48440;51.224;22.506;2023-02-01T15:36:35;13.65;;;5.93;;
62401;SDS011;48440;51.224;22.506;2023-02-01T15:41:47;15.63;;;6.78;;
62401;SDS011;48440;51.224;22.506;2023-02-01T15:47:07;13.65;;;5.82;;
62401;SDS011;48440;51.224;22.506;2023-02-01T15:49:40;17.38;;;6.13;;
62401;SDS011;48440;51.224;22.506;2023-02-01T15:52:22;21.35;;;6.68;;
62401;SDS011;48440;51.224;22.506;2023-02-01T15:54:48;22.17;;;7.50;;
62401;SDS011;48440;51.224;22.506;2023-02-01T15:57:23;34.67;;;9.48;;
62401;SDS011;48440;51.224;22.506;2023-02-01T15:59:55;22.20;;;8.95;;
62401;SDS011;48440;51.224;22.506;2023-02-01T16:02:33;22.38;;;9.32;;
62401;SDS011;48440;51.224;22.506;2023-02-01T16:10:48;23.75;;;9.30;;
62401;SDS011;48440;51.224;22.506;2023-02-01T16:13:16;22.85;;;8.35;;
62401;SDS011;48440;51.224;22.506;2023-02-01T16:15:42;21.73;;;8.85;;
62401;SDS011;48440;51.224;22.506;2023-02-01T16:18:09;22.05;;;9.00;;
62401;SDS011;48440;51.224;22.506;2023-02-01T16:20:36;18.58;;;8.48;;
62401;SDS011;48440;51.224;22.506;2023-02-01T16:23:02;20.13;;;8.45;;
62401;SDS011;48440;51.224;22.506;2023-02-01T16:25:28;20.00;;;9.07;;
62401;SDS011;48440;51.224;22.506;2023-02-01T16:27:54;22.63;;;9.40;;
62401;SDS011;48440;51.224;22.506;2023-02-01T16:30:19;21.40;;;9.20;;
62401;SDS011;48440;51.224;22.506;2023-02-01T16:32:57;19.70;;;8.40;;
62401;SDS011;48440;51.224;22.506;2023-02-01T16:37:52;16.33;;;7.43;;
62401;SDS011;48440;51.224;22.506;2023-02-01T16:40:18;19.55;;;7.40;;
62401;SDS011;48440;51.224;22.506;2023-02-01T16:42:47;19.85;;;7.40;;
62401;SDS011;48440;51.224;22.506;2023-02-01T16:45:15;19.17;;;8.13;;
62401;SDS011;48440;51.224;22.506;2023-02-01T16:47:46;21.02;;;7.88;;
62401;SDS011;48440;51.224;22.506;2023-02-01T16:50:16;25.27;;;7.88;;
62401;SDS011;48440;51.224;22.506;2023-02-01T16:52:43;20.50;;;8.50;;
62401;SDS011;48440;51.224;22.506;2023-02-01T16:55:12;15.30;;;7.13;;
62401;SDS011;48440;51.224;22.506;2023-02-01T16:57:40;17.33;;;7.32;;
62401;SDS011;48440;51.224;22.506;2023-02-01T17:00:07;15.85;;;7.88;;
62401;SDS011;48440;51.224;22.506;2023-02-01T17:02:34;16.27;;;7.50;;
62401;SDS011;48440;51.224;22.506;2023-02-01T17:04:59;15.20;;;7.13;;
62401;SDS011;48440;51.224;22.506;2023-02-01T17:07:25;18.05;;;7.68;;
62401;SDS011;48440;51.224;22.506;2023-02-01T17:09:51;16.85;;;6.60;;
62401;SDS011;48440;51.224;22.506;2023-02-01T17:14:48;13.35;;;6.00;;
62401;SDS011;48440;51.224;22.506;2023-02-01T17:17:15;16.15;;;6.85;;
62401;SDS011;48440;51.224;22.506;2023-02-01T17:19:41;19.45;;;7.53;;
62401;SDS011;48440;51.224;22.506;2023-02-01T17:22:16;21.17;;;7.70;;
62401;SDS011;48440;51.224;22.506;2023-02-01T17:24:42;21.27;;;7.00;;
62401;SDS011;48440;51.224;22.506;2023-02-01T17:27:08;18.15;;;7.35;;
62401;SDS011;48440;51.224;22.506;2023-02-01T17:29:34;16.92;;;7.75;;
62401;SDS011;48440;51.224;22.506;2023-02-01T17:32:06;14.93;;;7.22;;
62401;SDS011;48440;51.224;22.506;2023-02-01T17:34:40;18.40;;;8.18;;
62401;SDS011;48440;51.224;22.506;2023-02-01T17:37:08;18.75;;;7.78;;
62401;SDS011;48440;51.224;22.506;2023-02-01T17:39:47;15.18;;;7.95;;
62401;SDS011;48440;51.224;22.506;2023-02-01T17:42:22;18.38;;;8.05;;
62401;SDS011;48440;51.224;22.506;2023-02-01T17:44:50;19.88;;;8.93;;
62401;SDS011;48440;51.224;22.506;2023-02-01T17:47:19;17.38;;;8.10;;
62401;SDS011;48440;51.224;22.506;2023-02-01T17:49:45;14.18;;;8.02;;
62401;SDS011;48440;51.224;22.506;2023-02-01T17:52:14;18.00;;;8.38;;
62401;SDS011;48440;51.224;22.506;2023-02-01T17:54:41;17.13;;;8.82;;
62401;SDS011;48440;51.224;22.506;2023-02-01T17:57:11;21.80;;;8.27;;
62401;SDS011;48440;51.224;22.506;2023-02-01T17:59:37;20.63;;;8.60;;
62401;SDS011;48440;51.224;22.506;2023-02-01T18:02:02;16.13;;;8.20;;
62401;SDS011;48440;51.224;22.506;2023-02-01T18:04:28;20.15;;;7.65;;
62401;SDS011;48440;51.224;22.506;2023-02-01T18:06:53;19.35;;;8.15;;
62401;SDS011;48440;51.224;22.506;2023-02-01T18:09:19;17.15;;;8.00;;
62401;SDS011;48440;51.224;22.506;2023-02-01T18:11:44;17.02;;;8.05;;